Time;durP1;ratioP1;P1;durP2;ratioP2;P2;SDS_P1;SDS_P2;PMS_P1;PMS_P2;Temp;Humidity;BMP_temperature;BMP_pressure;BME280_temperature;BME280_humidity;BME280_pressure;Samples;Min_cycle;Max_cycle;Signal;HPM_P1;HPM_P2
2022/04/01 00:01:20;;;;;;;28.47;9.60;;;3.90;99.90;;;;;;5081371;28;20854;-67
2022/04/01 00:03:46;;;;;;;24.47;9.97;;;3.90;99.90;;;;;;5065890;28;20647;-67
2022/04/01 00:06:12;;;;;;;22.13;11.07;;;3.90;99.90;;;;;;5067575;28;20426;-67
2022/04/01 00:08:37;;;;;;;28.87;11.50;;;3.90;99.90;;;;;;5084997;28;20986;-66
2022/04/01 00:11:03;;;;;;;20.17;9.23;;;4.00;99.90;;;;;;5077623;28;20244;-66
2022/04/01 00:13:29;;;;;;;22.47;10.37;;;4.00;99.90;;;;;;5086158;28;20191;-66
2022/04/01 00:15:55;;;;;;;28.10;11.60;;;4.00;99.90;;;;;;5080918;28;20258;-67
2022/04/01 00:18:20;;;;;;;26.90;11.07;;;4.00;99.90;;;;;;5083961;28;20180;-67
2022/04/01 00:20:46;;;;;;;26.40;10.20;;;4.00;99.90;;;;;;5084784;28;21072;-65
2022/04/01 00:23:12;;;;;;;26.07;10.23;;;3.90;99.90;;;;;;5069084;28;20185;-67
2022/04/01 00:25:39;;;;;;;23.93;10.93;;;3.90;99.90;;;;;;5076499;28;20195;-66
2022/04/01 00:28:05;;;;;;;26.70;11.37;;;3.90;99.90;;;;;;5064815;28;20681;-67
2022/04/01 00:30:33;;;;;;;21.97;10.10;;;4.00;99.90;;;;;;5081786;28;20483;-65
2022/04/01 00:32:59;;;;;;;23.27;10.77;;;4.00;99.90;;;;;;5074062;28;20948;-67
2022/04/01 00:35:25;;;;;;;24.97;11.77;;;4.00;99.90;;;;;;5079646;28;20428;-67
2022/04/01 00:37:52;;;;;;;25.57;12.00;;;4.00;99.90;;;;;;5080043;28;20952;-65
2022/04/01 00:40:18;;;;;;;31.10;11.77;;;4.00;99.90;;;;;;5075988;28;20219;-67
2022/04/01 00:42:45;;;;;;;23.23;10.30;;;4.00;99.90;;;;;;5082782;28;20428;-67
2022/04/01 00:45:11;;;;;;;33.13;12.43;;;4.10;99.90;;;;;;5064096;28;20452;-67
2022/04/01 00:47:40;;;;;;;34.97;14.03;;;4.00;99.90;;;;;;5085849;28;20448;-67
2022/04/01 00:50:07;;;;;;;32.30;14.40;;;4.00;99.90;;;;;;5079533;28;20418;-66
2022/04/01 00:52:33;;;;;;;40.40;18.20;;;4.00;99.90;;;;;;5076630;28;20418;-67
2022/04/01 00:55:00;;;;;;;34.67;16.83;;;4.00;99.90;;;;;;5071297;28;20485;-67
2022/04/01 00:57:26;;;;;;;47.47;19.40;;;3.90;99.90;;;;;;5066678;28;20189;-66
2022/04/01 00:59:54;;;;;;;60.63;22.80;;;3.90;99.90;;;;;;5071097;28;20584;-67
2022/04/01 01:02:20;;;;;;;49.90;20.93;;;3.90;99.90;;;;;;5066603;28;20454;-68
2022/04/01 01:04:46;;;;;;;59.00;22.10;;;3.80;99.90;;;;;;5072847;28;20441;-68
2022/04/01 01:07:12;;;;;;;57.50;24.07;;;3.80;99.90;;;;;;5082953;28;20406;-67
2022/04/01 01:09:38;;;;;;;67.37;25.93;;;3.90;99.90;;;;;;5076118;28;20719;-68
2022/04/01 01:12:06;;;;;;;53.53;23.40;;;3.80;99.90;;;;;;5078797;28;20451;-67
2022/04/01 01:14:34;;;;;;;59.93;25.60;;;3.80;99.90;;;;;;5073660;28;20857;-67
2022/04/01 01:17:02;;;;;;;62.07;22.77;;;3.80;99.90;;;;;;5068054;28;20424;-67
2022/04/01 01:19:29;;;;;;;58.03;23.87;;;3.80;99.90;;;;;;5078126;28;20419;-67
2022/04/01 01:21:57;;;;;;;64.43;23.97;;;3.70;99.90;;;;;;5062598;28;20463;-67
2022/04/01 01:24:35;;;;;;;60.47;23.93;;;3.70;99.90;;;;;;5078656;28;20451;-68
2022/04/01 01:27:02;;;;;;;64.10;25.00;;;3.70;99.90;;;;;;5069085;28;20423;-68
2022/04/01 01:29:29;;;;;;;55.50;24.03;;;3.70;99.90;;;;;;5075773;28;20426;-66
2022/04/01 01:31:57;;;;;;;55.77;23.10;;;3.70;99.90;;;;;;5085395;28;20449;-68
2022/04/01 01:34:23;;;;;;;56.53;23.97;;;3.70;99.90;;;;;;5085808;28;20810;-67
2022/04/01 01:36:50;;;;;;;51.60;21.97;;;3.70;99.90;;;;;;5077189;28;20419;-68
2022/04/01 01:39:16;;;;;;;67.63;26.23;;;3.70;99.90;;;;;;5071796;28;20430;-66
2022/04/01 01:41:43;;;;;;;69.63;24.90;;;3.70;99.90;;;;;;5076648;28;21028;-66
2022/04/01 01:44:10;;;;;;;53.77;24.20;;;3.70;99.90;;;;;;5085421;28;20422;-67
2022/04/01 01:46:36;;;;;;;51.63;22.97;;;3.70;99.90;;;;;;5077569;28;20433;-67
2022/04/01 01:49:02;;;;;;;74.30;23.00;;;3.70;99.90;;;;;;5072890;28;20548;-69
2022/04/01 01:56:56;;;;;;;63.20;23.50;;;3.70;99.90;;;;;;5072877;28;20494;-69
2022/04/01 01:59:21;;;;;;;61.47;22.87;;;3.70;99.90;;;;;;5076341;28;20513;-68
2022/04/01 02:01:47;;;;;;;61.20;23.10;;;3.70;99.90;;;;;;5075725;28;20232;-68
2022/04/01 02:04:13;;;;;;;51.83;22.57;;;3.60;99.90;;;;;;5077311;28;20173;-68
2022/04/01 02:06:39;;;;;;;56.40;24.10;;;3.60;99.90;;;;;;5084095;28;20177;-67
2022/04/01 02:09:05;;;;;;;71.33;24.70;;;3.60;99.90;;;;;;5069715;28;20524;-68
2022/04/01 02:11:31;;;;;;;59.50;23.03;;;3.60;99.90;;;;;;5079370;28;20211;-68
2022/04/01 02:13:57;;;;;;;57.97;24.07;;;3.50;99.90;;;;;;5087841;28;20423;-68
2022/04/01 02:16:23;;;;;;;53.60;22.97;;;3.50;99.90;;;;;;5081953;28;20565;-67
2022/04/01 02:18:49;;;;;;;51.40;22.90;;;3.50;99.90;;;;;;5079446;28;20577;-70
2022/04/01 02:21:15;;;;;;;65.10;19.90;;;3.50;99.90;;;;;;5069651;28;20478;-66
2022/04/01 02:23:43;;;;;;;52.63;21.67;;;3.40;99.90;;;;;;5087685;28;20449;-68
2022/04/01 02:26:09;;;;;;;49.30;22.30;;;3.40;99.90;;;;;;5078506;28;20415;-66
2022/04/01 02:28:39;;;;;;;61.83;24.10;;;3.40;99.90;;;;;;5075380;28;20437;-68
2022/04/01 02:31:05;;;;;;;49.27;22.00;;;3.40;99.90;;;;;;5084100;28;20231;-67
2022/04/01 02:33:35;;;;;;;51.63;20.10;;;3.40;99.90;;;;;;5078405;28;20411;-68
2022/04/01 02:36:02;;;;;;;58.30;21.43;;;3.40;99.90;;;;;;5085389;28;20415;-67
2022/04/01 02:38:30;;;;;;;49.87;20.67;;;3.30;99.90;;;;;;5076990;28;20423;-70
2022/04/01 02:40:57;;;;;;;48.00;20.93;;;3.30;99.90;;;;;;5081760;28;21426;-68
2022/04/01 02:43:24;;;;;;;53.40;21.87;;;3.30;99.90;;;;;;5084149;28;20458;-67
2022/04/01 02:45:50;;;;;;;57.80;23.17;;;3.30;99.90;;;;;;5081533;28;20434;-67
2022/04/01 02:48:18;;;;;;;55.90;21.63;;;3.30;99.90;;;;;;5073164;28;20866;-67
2022/04/01 02:50:45;;;;;;;51.20;20.17;;;3.30;99.90;;;;;;5071567;28;20293;-67
2022/04/01 02:53:11;;;;;;;52.53;22.40;;;3.30;99.90;;;;;;5074509;28;20454;-67
2022/04/01 02:55:41;;;;;;;52.63;20.50;;;3.30;99.90;;;;;;5072855;28;20420;-68
2022/04/01 02:58:07;;;;;;;74.37;23.33;;;3.30;99.90;;;;;;5078438;28;20839;-67
2022/04/01 03:00:34;;;;;;;47.53;19.17;;;3.30;99.90;;;;;;5077025;28;20515;-68
2022/04/01 03:03:00;;;;;;;58.13;19.87;;;3.30;99.90;;;;;;5072480;28;20419;-67
2022/04/01 03:05:27;;;;;;;46.97;19.63;;;3.30;99.90;;;;;;5069071;28;20443;-67
2022/04/01 03:07:53;;;;;;;49.67;20.83;;;3.30;99.90;;;;;;5086584;28;21047;-67
2022/04/01 03:10:23;;;;;;;48.23;19.77;;;3.30;99.90;;;;;;5086692;28;20517;-67
2022/04/01 03:12:49;;;;;;;47.13;20.90;;;3.30;99.90;;;;;;5075067;28;20193;-68
2022/04/01 03:15:15;;;;;;;47.93;18.87;;;3.20;99.90;;;;;;5076513;28;20420;-67
2022/04/01 03:17:41;;;;;;;51.13;19.10;;;3.20;99.90;;;;;;5076629;28;20501;-65
2022/04/01 03:20:13;;;;;;;53.47;20.20;;;3.20;99.90;;;;;;5069155;28;20588;-65
2022/04/01 03:22:43;;;;;;;47.33;18.07;;;3.20;99.90;;;;;;5073299;28;20183;-65
2022/04/01 03:25:18;;;;;;;49.40;19.93;;;3.20;99.90;;;;;;5070997;28;20426;-65
2022/04/01 03:27:45;;;;;;;43.23;17.17;;;3.20;99.90;;;;;;5077826;28;20429;-65
2022/04/01 03:30:11;;;;;;;42.20;16.20;;;3.20;99.90;;;;;;5078432;28;20427;-65
2022/04/01 03:32:38;;;;;;;37.23;15.13;;;3.20;99.90;;;;;;5074555;28;20455;-65
2022/04/01 03:35:07;;;;;;;34.93;15.90;;;3.10;99.90;;;;;;5078632;28;21149;-65
2022/04/01 03:37:33;;;;;;;31.33;14.63;;;3.10;99.90;;;;;;5070719;28;20881;-68
2022/04/01 03:40:00;;;;;;;38.77;14.20;;;3.10;99.90;;;;;;5085947;28;20454;-65
2022/04/01 03:42:30;;;;;;;38.70;14.97;;;3.10;99.90;;;;;;5085557;28;20545;-67
2022/04/01 03:44:56;;;;;;;30.00;13.90;;;3.10;99.90;;;;;;5077788;28;20408;-66
2022/04/01 03:47:26;;;;;;;36.40;12.73;;;3.00;99.90;;;;;;5069917;28;20414;-65
2022/04/01 03:49:57;;;;;;;30.60;13.63;;;3.00;99.90;;;;;;5064508;28;20517;-66
2022/04/01 03:52:25;;;;;;;33.43;15.40;;;3.00;99.90;;;;;;5071341;28;20446;-66
2022/04/01 03:54:55;;;;;;;32.40;13.50;;;3.00;99.90;;;;;;5072654;28;20422;-65
2022/04/01 03:57:31;;;;;;;31.47;15.00;;;3.00;99.90;;;;;;5081346;28;20422;-65
2022/04/01 03:59:58;;;;;;;35.97;14.63;;;3.00;99.90;;;;;;5078129;28;20468;-66
2022/04/01 04:02:24;;;;;;;29.10;13.60;;;3.10;99.90;;;;;;5077928;28;20788;-69
2022/04/01 04:04:54;;;;;;;28.07;12.80;;;3.00;99.90;;;;;;5078294;28;20415;-65
2022/04/01 04:07:20;;;;;;;34.00;14.00;;;3.00;99.90;;;;;;5082752;28;20411;-66
2022/04/01 04:09:46;;;;;;;29.03;12.17;;;3.00;99.90;;;;;;5079061;28;20418;-66
2022/04/01 04:12:13;;;;;;;27.90;11.80;;;2.90;99.90;;;;;;5076682;28;20503;-65
2022/04/01 04:14:42;;;;;;;28.10;13.10;;;2.90;99.90;;;;;;5079379;28;20690;-66
2022/04/01 04:17:16;;;;;;;25.37;11.97;;;2.90;99.90;;;;;;5074552;28;20414;-66
2022/04/01 04:20:01;;;;;;;29.40;12.60;;;2.90;99.90;;;;;;5063937;28;20484;-65
2022/04/01 04:22:39;;;;;;;41.77;12.13;;;2.80;99.90;;;;;;5066481;28;20459;-64
2022/04/01 04:25:10;;;;;;;24.50;10.53;;;2.80;99.90;;;;;;5077841;28;20429;-66
2022/04/01 04:27:37;;;;;;;29.40;11.30;;;2.80;99.90;;;;;;5069070;28;20548;-66
2022/04/01 04:30:09;;;;;;;27.70;11.03;;;2.80;99.90;;;;;;5080065;28;20422;-66
2022/04/01 04:32:41;;;;;;;25.27;11.57;;;2.80;99.90;;;;;;5078670;28;20418;-66
2022/04/01 04:35:09;;;;;;;26.17;10.60;;;2.80;99.90;;;;;;5078906;28;20468;-66
2022/04/01 04:37:37;;;;;;;29.63;12.73;;;2.80;99.90;;;;;;5071344;28;20521;-65
2022/04/01 04:40:04;;;;;;;23.00;11.33;;;2.80;99.90;;;;;;5080025;28;20471;-65
2022/04/01 04:42:32;;;;;;;24.27;10.60;;;2.70;99.90;;;;;;5073849;28;20486;-67
2022/04/01 04:44:58;;;;;;;24.70;10.30;;;2.70;99.90;;;;;;5069409;28;20426;-68
2022/04/01 04:47:29;;;;;;;22.40;11.03;;;2.70;99.90;;;;;;5073997;28;20514;-67
2022/04/01 04:49:58;;;;;;;27.77;12.10;;;2.70;99.90;;;;;;5069173;28;20513;-68
2022/04/01 04:52:30;;;;;;;21.40;10.93;;;2.60;99.90;;;;;;5076709;28;20545;-68
2022/04/01 04:54:56;;;;;;;21.50;9.90;;;2.60;99.90;;;;;;5072954;28;21200;-67
2022/04/01 04:57:22;;;;;;;18.77;9.60;;;2.60;99.90;;;;;;5073341;28;20525;-67
2022/04/01 04:59:49;;;;;;;23.30;10.57;;;2.60;99.90;;;;;;5068847;28;20430;-67
2022/04/01 05:02:39;;;;;;;26.37;13.03;;;2.60;99.90;;;;;;5067113;28;20562;-68
2022/04/01 05:05:16;;;;;;;29.10;12.40;;;2.60;99.90;;;;;;5083072;28;20494;-67
2022/04/01 05:08:10;;;;;;;33.83;14.40;;;2.60;99.90;;;;;;5082837;28;20422;-68
2022/04/01 05:11:05;;;;;;;22.10;12.43;;;2.50;99.90;;;;;;5081332;28;20541;-67
2022/04/01 05:14:00;;;;;;;25.20;13.70;;;2.50;99.90;;;;;;5084867;28;20421;-66
2022/04/01 05:16:47;;;;;;;28.23;14.07;;;2.50;99.90;;;;;;5076766;28;20433;-64
2022/04/01 05:19:13;;;;;;;32.60;14.03;;;2.50;99.90;;;;;;5065941;28;20780;-66
2022/04/01 05:21:53;;;;;;;29.83;13.17;;;2.40;99.90;;;;;;5073524;28;20475;-65
2022/04/01 05:24:26;;;;;;;31.93;13.50;;;2.30;99.90;;;;;;5065069;28;20177;-65
2022/04/01 05:26:55;;;;;;;26.73;12.20;;;2.40;99.90;;;;;;5073590;28;20414;-65
2022/04/01 05:29:26;;;;;;;26.50;12.80;;;2.40;99.90;;;;;;5078008;28;20422;-66
2022/04/01 05:32:00;;;;;;;27.67;14.47;;;2.40;99.90;;;;;;5078264;28;20551;-65
2022/04/01 05:34:46;;;;;;;27.90;12.47;;;2.40;99.90;;;;;;5071491;28;20429;-68
2022/04/01 05:37:14;;;;;;;33.53;14.27;;;2.40;99.90;;;;;;5064883;28;20430;-66
2022/04/01 05:39:42;;;;;;;32.07;13.97;;;2.30;99.90;;;;;;5080771;28;20913;-66
2022/04/01 05:42:08;;;;;;;28.13;13.10;;;2.30;99.90;;;;;;5067215;28;20443;-66
2022/04/01 05:44:36;;;;;;;27.83;12.83;;;2.30;99.90;;;;;;5078525;28;20494;-65
2022/04/01 05:47:03;;;;;;;36.73;16.27;;;2.30;99.90;;;;;;5080209;28;20419;-65
2022/04/01 05:49:30;;;;;;;27.50;13.20;;;2.40;99.90;;;;;;5073950;28;20511;-65
2022/04/01 05:51:56;;;;;;;27.47;13.13;;;2.30;99.90;;;;;;5078875;28;21130;-66
2022/04/01 05:54:23;;;;;;;29.33;13.17;;;2.30;99.90;;;;;;5067822;28;20427;-65
2022/04/01 05:56:50;;;;;;;28.20;13.53;;;2.30;99.90;;;;;;5072201;28;20478;-66
2022/04/01 05:59:17;;;;;;;29.27;13.50;;;2.30;99.90;;;;;;5074890;28;20792;-67
2022/04/01 06:02:12;;;;;;;30.03;13.83;;;2.30;99.90;;;;;;5073777;28;20458;-66
2022/04/01 06:05:01;;;;;;;28.80;13.30;;;2.40;99.90;;;;;;5018141;28;20434;-66
2022/04/01 06:07:33;;;;;;;28.33;14.17;;;2.30;99.90;;;;;;5074656;28;20435;-66
2022/04/01 06:10:11;;;;;;;28.20;13.20;;;2.30;99.90;;;;;;5076238;28;20496;-66
2022/04/01 06:13:14;;;;;;;29.00;14.63;;;2.30;99.90;;;;;;5076529;28;20529;-66
2022/04/01 06:16:01;;;;;;;22.13;13.47;;;2.30;99.90;;;;;;5053815;28;20446;-67
2022/04/01 06:18:29;;;;;;;26.93;13.40;;;2.30;99.90;;;;;;5077196;28;20430;-66
2022/04/01 06:21:02;;;;;;;23.53;12.50;;;2.30;99.90;;;;;;5074598;28;20493;-66
2022/04/01 06:24:01;;;;;;;28.67;13.10;;;2.20;99.90;;;;;;5066893;28;20430;-66
2022/04/01 06:26:30;;;;;;;28.37;12.60;;;2.20;99.90;;;;;;5076474;28;20419;-65
2022/04/01 06:29:19;;;;;;;28.90;13.80;;;2.20;99.90;;;;;;5078410;28;20517;-66
2022/04/01 06:31:52;;;;;;;28.27;12.73;;;2.20;99.90;;;;;;5080855;28;20450;-66
2022/04/01 06:34:40;;;;;;;26.17;12.27;;;2.20;99.90;;;;;;5077331;28;20498;-64
2022/04/01 06:37:14;;;;;;;30.13;11.27;;;2.20;99.90;;;;;;5084320;28;20800;-65
2022/04/01 06:40:12;;;;;;;21.00;11.10;;;2.20;99.90;;;;;;5084731;28;20418;-64
2022/04/01 06:42:40;;;;;;;22.10;11.33;;;2.20;99.90;;;;;;5081796;28;20399;-65
2022/04/01 06:45:08;;;;;;;21.90;11.40;;;2.20;99.90;;;;;;5079422;28;20423;-66
2022/04/01 06:47:35;;;;;;;24.40;12.07;;;2.20;99.90;;;;;;5074910;28;20953;-64
2022/04/01 06:50:01;;;;;;;22.10;11.90;;;2.10;99.90;;;;;;5078602;28;20418;-65
2022/04/01 06:52:27;;;;;;;20.87;11.10;;;2.10;99.90;;;;;;5075894;28;20439;-64
2022/04/01 06:54:54;;;;;;;23.47;11.20;;;2.10;99.90;;;;;;5067404;28;20963;-64
2022/04/01 06:57:20;;;;;;;25.40;10.80;;;2.10;99.90;;;;;;5068861;28;20297;-69
2022/04/01 06:59:46;;;;;;;27.33;12.20;;;2.10;99.90;;;;;;5079404;28;20906;-64
2022/04/01 07:02:12;;;;;;;18.70;10.57;;;2.10;99.90;;;;;;5073059;28;20446;-65
2022/04/01 07:04:38;;;;;;;23.27;11.03;;;2.10;99.90;;;;;;5068224;28;20416;-66
2022/04/01 07:07:04;;;;;;;21.53;11.10;;;2.10;99.90;;;;;;5078307;28;20617;-67
2022/04/01 07:09:30;;;;;;;20.07;9.97;;;2.20;99.90;;;;;;5073131;28;20181;-65
2022/04/01 07:11:59;;;;;;;19.47;9.43;;;2.10;99.90;;;;;;5072550;28;20443;-67
2022/04/01 07:14:27;;;;;;;16.87;8.97;;;2.20;99.90;;;;;;5081671;28;20188;-66
2022/04/01 07:16:55;;;;;;;17.40;9.63;;;2.20;99.90;;;;;;5080229;28;20426;-66
2022/04/01 07:19:22;;;;;;;17.87;10.07;;;2.20;99.90;;;;;;5086058;28;20445;-66
2022/04/01 07:21:47;;;;;;;24.93;11.67;;;2.20;99.90;;;;;;5081542;28;20577;-67
2022/04/01 07:24:13;;;;;;;20.00;10.80;;;2.20;99.90;;;;;;5063953;28;21105;-67
2022/04/01 07:26:39;;;;;;;26.33;11.37;;;2.20;99.90;;;;;;5073653;28;20177;-68
2022/04/01 07:29:06;;;;;;;24.93;11.40;;;2.30;99.90;;;;;;5079328;28;20177;-67
2022/04/01 07:34:39;;;;;;;23.10;12.03;;;2.20;99.90;;;;;;5042461;28;20474;-66
2022/04/01 07:37:05;;;;;;;28.70;12.30;;;2.20;99.90;;;;;;5083335;28;20470;-67
2022/04/01 07:39:31;;;;;;;22.27;10.77;;;2.10;99.90;;;;;;5078509;28;20423;-66
2022/04/01 07:41:57;;;;;;;18.67;10.47;;;2.10;99.90;;;;;;5077553;28;20298;-66
2022/04/01 07:44:23;;;;;;;21.10;10.40;;;2.10;99.90;;;;;;5064857;28;20956;-66
2022/04/01 07:46:50;;;;;;;20.50;10.37;;;2.10;99.90;;;;;;5086539;28;20191;-66
2022/04/01 07:49:17;;;;;;;25.33;10.57;;;2.10;99.90;;;;;;5071437;28;20180;-66
2022/04/01 07:51:43;;;;;;;21.87;11.23;;;2.10;99.90;;;;;;5067713;28;20470;-67
2022/04/01 07:54:13;;;;;;;23.40;11.07;;;2.10;99.90;;;;;;5072454;28;20419;-66
2022/04/01 07:56:41;;;;;;;20.83;11.00;;;2.10;99.90;;;;;;5067223;28;20503;-67
2022/04/01 07:59:14;;;;;;;25.77;12.27;;;2.20;99.90;;;;;;5069458;28;20533;-65
2022/04/01 08:01:40;;;;;;;25.10;12.93;;;2.20;99.90;;;;;;5065085;28;20500;-66
2022/04/01 08:04:05;;;;;;;32.47;12.70;;;2.20;99.90;;;;;;5077622;28;20541;-67
2022/04/01 08:06:31;;;;;;;25.20;11.63;;;2.10;99.90;;;;;;5076031;28;20419;-66
2022/04/01 08:08:58;;;;;;;26.27;12.00;;;2.20;99.90;;;;;;5081253;28;20193;-66
2022/04/01 08:11:27;;;;;;;20.80;9.97;;;2.10;99.90;;;;;;5074876;28;20455;-65
2022/04/01 08:13:54;;;;;;;29.17;13.80;;;2.10;99.90;;;;;;5078163;28;20580;-65
2022/04/01 08:16:20;;;;;;;22.93;11.77;;;2.10;99.90;;;;;;5073373;28;20899;-63
2022/04/01 08:18:46;;;;;;;25.37;13.60;;;2.10;99.90;;;;;;5075585;28;21323;-66
2022/04/01 08:21:12;;;;;;;28.23;11.90;;;2.20;99.90;;;;;;5070589;28;20553;-64
2022/04/01 08:23:38;;;;;;;29.30;13.60;;;2.10;99.90;;;;;;5083174;28;20185;-67
2022/04/01 08:26:05;;;;;;;21.57;11.57;;;2.10;99.90;;;;;;5080029;28;20189;-68
2022/04/01 08:28:31;;;;;;;20.43;10.87;;;2.20;99.90;;;;;;5076041;28;20211;-66
2022/04/01 08:30:57;;;;;;;28.73;13.10;;;2.20;99.90;;;;;;5073378;28;20447;-67
2022/04/01 08:33:23;;;;;;;23.20;11.30;;;2.20;99.90;;;;;;5070856;28;20667;-66
2022/04/01 08:35:49;;;;;;;21.10;10.43;;;2.20;99.90;;;;;;5070577;28;20816;-66
2022/04/01 08:38:16;;;;;;;25.17;12.40;;;2.10;99.90;;;;;;5061525;28;20442;-65
2022/04/01 08:40:42;;;;;;;20.77;9.67;;;2.10;99.90;;;;;;5070266;28;20488;-65
2022/04/01 08:43:08;;;;;;;19.13;10.10;;;2.20;99.90;;;;;;5083379;28;20812;-63
2022/04/01 08:45:37;;;;;;;19.47;10.17;;;2.20;99.90;;;;;;5074959;28;20542;-66
2022/04/01 08:48:11;;;;;;;26.30;12.13;;;2.20;99.90;;;;;;5066505;28;20492;-68
2022/04/01 08:50:37;;;;;;;22.63;10.77;;;2.20;99.90;;;;;;5068288;28;20450;-66
2022/04/01 08:53:03;;;;;;;18.60;9.40;;;2.20;99.90;;;;;;5076231;28;20570;-68
2022/04/01 08:55:29;;;;;;;20.83;9.53;;;2.30;99.90;;;;;;5066270;28;20200;-66
2022/04/01 08:57:55;;;;;;;19.03;9.47;;;2.30;99.90;;;;;;5073197;28;20458;-69
2022/04/01 09:00:20;;;;;;;18.97;9.33;;;2.30;99.90;;;;;;5075592;28;21524;-65
2022/04/01 09:03:02;;;;;;;17.00;9.33;;;2.20;99.90;;;;;;5077301;28;20212;-66
2022/04/01 09:05:28;;;;;;;17.53;9.50;;;2.30;99.90;;;;;;5074424;28;20691;-66
2022/04/01 09:08:04;;;;;;;19.47;9.47;;;2.20;99.90;;;;;;5078108;28;20889;-66
2022/04/01 09:10:31;;;;;;;18.00;9.33;;;2.20;99.90;;;;;;5084372;28;20558;-64
2022/04/01 09:12:57;;;;;;;17.70;8.20;;;2.20;99.90;;;;;;5066021;28;20538;-66
2022/04/01 09:15:37;;;;;;;19.30;10.17;;;2.20;99.90;;;;;;5072153;28;21015;-67
2022/04/01 09:18:03;;;;;;;18.40;8.90;;;2.20;99.90;;;;;;5072050;28;20189;-66
2022/04/01 09:20:42;;;;;;;19.40;9.30;;;2.20;99.90;;;;;;5067074;28;20474;-66
2022/04/01 09:23:08;;;;;;;18.00;9.83;;;2.20;99.90;;;;;;5075874;28;20172;-65
2022/04/01 09:25:34;;;;;;;19.80;8.47;;;2.20;99.90;;;;;;5076127;28;20410;-66
2022/04/01 09:28:00;;;;;;;20.03;9.20;;;2.20;99.90;;;;;;5059934;28;20172;-67
2022/04/01 09:30:31;;;;;;;14.27;8.30;;;2.20;99.90;;;;;;5072973;28;20341;-67
2022/04/01 09:32:59;;;;;;;16.83;7.70;;;2.20;99.90;;;;;;5077953;28;20530;-66
2022/04/01 09:35:27;;;;;;;17.23;8.87;;;2.20;99.90;;;;;;5069669;28;20438;-65
2022/04/01 09:37:57;;;;;;;14.27;7.90;;;2.20;99.90;;;;;;5074071;28;20442;-63
2022/04/01 09:40:23;;;;;;;15.03;8.17;;;2.20;99.90;;;;;;5071676;28;20470;-65
2022/04/01 09:42:50;;;;;;;17.30;8.43;;;2.30;99.90;;;;;;5075032;28;20423;-67
2022/04/01 09:45:35;;;;;;;18.53;9.50;;;2.20;99.90;;;;;;5070900;28;20185;-64
2022/04/01 09:48:04;;;;;;;14.70;8.77;;;2.30;99.90;;;;;;5071756;28;20517;-66
2022/04/01 09:50:36;;;;;;;18.97;9.00;;;2.30;99.90;;;;;;5071045;28;20514;-67
2022/04/01 09:53:11;;;;;;;15.50;7.60;;;2.30;99.90;;;;;;5069576;28;20491;-66
2022/04/01 09:55:40;;;;;;;21.20;9.43;;;2.20;99.90;;;;;;5077495;28;20467;-69
2022/04/01 09:58:06;;;;;;;19.67;8.87;;;2.20;99.90;;;;;;5078032;28;20849;-65
2022/04/01 10:00:34;;;;;;;21.60;10.47;;;2.30;99.90;;;;;;5072211;28;20957;-64
2022/04/01 10:02:59;;;;;;;19.50;10.50;;;2.20;99.90;;;;;;5060417;28;20612;-68
2022/04/01 10:05:28;;;;;;;18.40;9.77;;;2.20;99.90;;;;;;5077758;28;20595;-66
2022/04/01 10:07:56;;;;;;;18.70;9.90;;;2.20;99.90;;;;;;5077809;28;20185;-67
2022/04/01 10:10:26;;;;;;;14.43;7.17;;;2.20;99.90;;;;;;5079785;28;21072;-66
2022/04/01 10:12:57;;;;;;;28.73;12.80;;;2.30;99.90;;;;;;5079547;28;21188;-66
2022/04/01 10:15:22;;;;;;;12.60;6.70;;;2.30;99.90;;;;;;5076414;28;20431;-68
2022/04/01 10:17:51;;;;;;;18.63;9.57;;;2.30;99.90;;;;;;5077184;28;20941;-67
2022/04/01 10:20:19;;;;;;;18.47;8.57;;;2.20;99.90;;;;;;5078988;28;20208;-66
2022/04/01 10:22:46;;;;;;;14.77;8.63;;;2.30;99.90;;;;;;5080648;28;20410;-67
2022/04/01 10:25:15;;;;;;;14.37;6.90;;;2.20;99.90;;;;;;5075889;28;21127;-66
2022/04/01 10:27:48;;;;;;;16.30;7.93;;;2.20;99.90;;;;;;5072076;28;20423;-64
2022/04/01 10:30:23;;;;;;;23.10;10.17;;;2.20;99.90;;;;;;5078604;28;21074;-67
2022/04/01 10:32:49;;;;;;;14.87;7.37;;;2.20;99.90;;;;;;5074179;28;20414;-68
2022/04/01 10:35:27;;;;;;;15.30;9.30;;;2.20;99.90;;;;;;5055181;28;20471;-66
2022/04/01 10:38:16;;;;;;;20.87;9.00;;;2.20;99.90;;;;;;5078896;28;20892;-66
2022/04/01 10:40:45;;;;;;;16.87;8.20;;;2.20;99.90;;;;;;5079312;28;20471;-67
2022/04/01 10:43:13;;;;;;;17.90;9.37;;;2.20;99.90;;;;;;5059041;28;20557;-66
2022/04/01 10:45:41;;;;;;;16.67;8.90;;;2.20;99.90;;;;;;5073579;28;20420;-65
2022/04/01 10:53:57;;;;;;;15.10;9.73;;;2.30;99.90;;;;;;5081094;28;21016;-65
2022/04/01 10:56:26;;;;;;;20.30;10.30;;;2.20;99.90;;;;;;5078172;28;20462;-63
2022/04/01 10:59:01;;;;;;;18.10;8.87;;;2.20;99.90;;;;;;5085309;28;20181;-66
2022/04/01 11:01:26;;;;;;;22.80;11.13;;;2.20;99.90;;;;;;5086664;28;20465;-66
2022/04/01 11:03:52;;;;;;;20.70;11.60;;;2.20;99.90;;;;;;5087263;28;20921;-68
2022/04/01 11:06:22;;;;;;;17.10;9.00;;;2.20;99.90;;;;;;5083549;28;20631;-66
2022/04/01 11:08:55;;;;;;;19.03;9.80;;;2.20;99.90;;;;;;5083214;28;20176;-67
2022/04/01 11:11:21;;;;;;;15.07;8.90;;;2.20;99.90;;;;;;5074635;28;20530;-67
2022/04/01 11:14:04;;;;;;;21.90;11.07;;;2.10;99.90;;;;;;5072630;28;20519;-68
2022/04/01 11:16:50;;;;;;;13.67;7.60;;;2.10;99.90;;;;;;5075540;28;21321;-67
2022/04/01 11:19:22;;;;;;;19.17;9.50;;;2.30;99.90;;;;;;5079582;28;20448;-65
2022/04/01 11:21:48;;;;;;;14.13;8.60;;;2.30;99.90;;;;;;5078665;28;20545;-67
2022/04/01 11:24:37;;;;;;;19.83;9.00;;;2.20;99.90;;;;;;5075776;28;21294;-66
2022/04/01 11:27:23;;;;;;;16.53;8.27;;;2.20;99.90;;;;;;5079349;28;20558;-68
2022/04/01 11:30:12;;;;;;;13.40;6.57;;;2.20;99.90;;;;;;5076419;28;20426;-66
2022/04/01 11:32:38;;;;;;;15.80;6.53;;;2.10;99.90;;;;;;5076914;28;20419;-68
2022/04/01 11:35:06;;;;;;;12.40;6.90;;;2.10;99.90;;;;;;5070993;28;20494;-67
2022/04/01 11:37:40;;;;;;;14.03;6.30;;;2.10;99.90;;;;;;5072341;28;20907;-68
2022/04/01 11:40:11;;;;;;;12.60;6.20;;;2.10;99.90;;;;;;5078103;28;20413;-67
2022/04/01 11:42:53;;;;;;;16.10;7.93;;;2.10;99.90;;;;;;5079408;28;20505;-67
2022/04/01 11:45:19;;;;;;;14.20;7.50;;;2.10;99.90;;;;;;5074914;28;20918;-68
2022/04/01 11:47:45;;;;;;;11.13;6.20;;;2.20;99.90;;;;;;5076228;28;20406;-67
2022/04/01 11:50:13;;;;;;;13.10;6.93;;;2.30;99.90;;;;;;5076203;28;20918;-68
2022/04/01 11:52:44;;;;;;;14.07;7.17;;;2.40;99.90;;;;;;5073276;28;20197;-66
2022/04/01 11:55:17;;;;;;;16.87;8.90;;;2.40;99.90;;;;;;5078639;28;20463;-65
2022/04/01 11:57:44;;;;;;;13.57;7.70;;;2.40;99.90;;;;;;5075523;28;21051;-69
2022/04/01 12:00:13;;;;;;;14.30;7.63;;;2.40;99.90;;;;;;5068462;28;20423;-66
2022/04/01 12:02:41;;;;;;;11.13;6.20;;;2.30;99.90;;;;;;5080635;28;20456;-67
2022/04/01 12:05:08;;;;;;;14.53;7.63;;;2.40;99.90;;;;;;5081725;28;20420;-66
2022/04/01 12:10:24;;;;;;;13.37;6.37;;;2.30;99.90;;;;;;5072156;28;20460;-67
2022/04/01 12:13:16;;;;;;;14.77;6.40;;;2.30;99.90;;;;;;5073753;28;20447;-68
2022/04/01 12:15:43;;;;;;;11.87;6.57;;;2.30;99.90;;;;;;5070183;28;20470;-67
2022/04/01 12:18:16;;;;;;;10.43;5.20;;;2.40;99.90;;;;;;5072729;28;20442;-70
2022/04/01 12:20:48;;;;;;;9.00;6.17;;;2.30;99.90;;;;;;5072862;28;20471;-66
2022/04/01 12:23:15;;;;;;;9.30;5.37;;;2.30;99.90;;;;;;5059246;28;20415;-68
2022/04/01 12:25:42;;;;;;;12.53;6.30;;;2.30;99.90;;;;;;5075267;28;20587;-67
2022/04/01 12:28:13;;;;;;;13.33;6.63;;;2.30;99.90;;;;;;5077875;28;20446;-66
2022/04/01 12:30:48;;;;;;;15.10;6.07;;;2.50;99.90;;;;;;5079793;28;20465;-68
2022/04/01 12:33:18;;;;;;;11.27;6.00;;;2.60;99.90;;;;;;5077607;28;20423;-65
2022/04/01 12:36:08;;;;;;;11.97;7.07;;;2.40;99.90;;;;;;5059520;28;20491;-68
2022/04/01 12:38:38;;;;;;;12.93;8.03;;;2.40;99.90;;;;;;5071888;28;20480;-69
2022/04/01 12:41:06;;;;;;;11.73;7.13;;;2.30;99.90;;;;;;5082982;28;20488;-69
2022/04/01 12:43:43;;;;;;;28.63;8.10;;;2.20;99.90;;;;;;5073128;28;20465;-68
2022/04/01 12:46:22;;;;;;;13.00;8.17;;;2.10;99.90;;;;;;5062093;28;20933;-68
2022/04/01 12:48:53;;;;;;;14.77;7.30;;;2.10;99.90;;;;;;5073040;28;20430;-66
2022/04/01 12:51:28;;;;;;;14.00;8.00;;;2.10;99.90;;;;;;5075281;28;20431;-65
2022/04/01 12:53:56;;;;;;;11.23;6.53;;;2.00;99.90;;;;;;5076324;28;20414;-66
2022/04/01 12:56:44;;;;;;;7.67;4.90;;;2.00;99.90;;;;;;5074922;28;20418;-66
2022/04/01 12:59:14;;;;;;;5.23;3.00;;;2.00;99.90;;;;;;5075358;28;20974;-66
2022/04/01 13:02:01;;;;;;;3.70;2.33;;;2.00;99.90;;;;;;5074068;28;20484;-67
2022/04/01 13:04:27;;;;;;;3.00;1.80;;;1.90;99.90;;;;;;5073964;28;20426;-65
2022/04/01 13:07:15;;;;;;;3.90;2.20;;;1.80;99.90;;;;;;5075832;28;20418;-66
2022/04/01 13:09:48;;;;;;;3.03;1.83;;;1.80;99.90;;;;;;5076390;28;21082;-68
2022/04/01 13:12:14;;;;;;;3.30;2.30;;;1.90;99.90;;;;;;5076356;28;20446;-66